sensor_id;sensor_type;location;lat;lon;timestamp;pressure;altitude;pressure_sealevel;temperature;humidity
47080;BME280;33067;49.296;14.470;2023-02-19T00:00:41;97132.28;;;10.92;46.82
47080;BME280;33067;49.296;14.470;2023-02-19T00:03:07;97129.59;;;11.78;46.11
47080;BME280;33067;49.296;14.470;2023-02-19T00:05:34;97131.24;;;10.84;46.85
47080;BME280;33067;49.296;14.470;2023-02-19T00:07:57;97131.14;;;11.09;47.32
47080;BME280;33067;49.296;14.470;2023-02-19T00:10:23;97133.02;;;10.94;47.02
47080;BME280;33067;49.296;14.470;2023-02-19T00:12:48;97127.54;;;10.80;46.75
47080;BME280;33067;49.296;14.470;2023-02-19T00:15:14;97121.76;;;10.70;47.07
47080;BME280;33067;49.296;14.470;2023-02-19T00:17:39;97104.17;;;11.39;46.41
47080;BME280;33067;49.296;14.470;2023-02-19T00:20:05;97108.68;;;10.93;46.92
47080;BME280;33067;49.296;14.470;2023-02-19T00:22:29;97095.87;;;11.08;46.14
47080;BME280;33067;49.296;14.470;2023-02-19T00:24:55;97093.68;;;11.05;45.85
47080;BME280;33067;49.296;14.470;2023-02-19T00:27:20;97096.74;;;10.20;47.65
47080;BME280;33067;49.296;14.470;2023-02-19T00:29:45;97097.11;;;9.72;49.02
47080;BME280;33067;49.296;14.470;2023-02-19T00:32:11;97101.79;;;10.38;48.03
47080;BME280;33067;49.296;14.470;2023-02-19T00:34:37;97099.78;;;10.50;47.54
47080;BME280;33067;49.296;14.470;2023-02-19T00:37:02;97099.54;;;10.89;46.30
47080;BME280;33067;49.296;14.470;2023-02-19T00:39:28;97091.70;;;10.41;47.48
47080;BME280;33067;49.296;14.470;2023-02-19T00:41:53;97091.67;;;10.40;47.95
47080;BME280;33067;49.296;14.470;2023-02-19T00:44:19;97087.36;;;9.91;48.79
47080;BME280;33067;49.296;14.470;2023-02-19T00:46:46;97097.25;;;9.65;49.65
47080;BME280;33067;49.296;14.470;2023-02-19T00:49:16;97099.10;;;9.71;49.31
47080;BME280;33067;49.296;14.470;2023-02-19T00:51:37;97094.84;;;10.20;48.45
47080;BME280;33067;49.296;14.470;2023-02-19T00:54:01;97092.02;;;10.15;48.55
47080;BME280;33067;49.296;14.470;2023-02-19T00:56:26;97101.42;;;9.94;48.94
47080;BME280;33067;49.296;14.470;2023-02-19T00:58:51;97099.72;;;10.07;48.86
47080;BME280;33067;49.296;14.470;2023-02-19T01:01:17;97102.87;;;10.62;47.88
47080;BME280;33067;49.296;14.470;2023-02-19T01:03:42;97098.23;;;10.08;48.82
47080;BME280;33067;49.296;14.470;2023-02-19T01:06:09;97098.91;;;9.94;49.24
47080;BME280;33067;49.296;14.470;2023-02-19T01:08:35;97090.12;;;10.77;48.10
47080;BME280;33067;49.296;14.470;2023-02-19T01:10:59;97097.79;;;10.38;49.36
47080;BME280;33067;49.296;14.470;2023-02-19T01:13:23;97090.94;;;10.16;50.40
47080;BME280;33067;49.296;14.470;2023-02-19T01:15:49;97085.30;;;9.25;51.93
47080;BME280;33067;49.296;14.470;2023-02-19T01:18:14;97078.98;;;10.18;50.71
47080;BME280;33067;49.296;14.470;2023-02-19T01:20:40;97082.42;;;10.21;50.76
47080;BME280;33067;49.296;14.470;2023-02-19T01:23:04;97078.68;;;9.78;51.93
47080;BME280;33067;49.296;14.470;2023-02-19T01:25:30;97070.11;;;9.62;52.14
47080;BME280;33067;49.296;14.470;2023-02-19T01:27:55;97070.70;;;10.25;51.29
47080;BME280;33067;49.296;14.470;2023-02-19T01:30:20;97063.74;;;10.36;51.12
47080;BME280;33067;49.296;14.470;2023-02-19T01:32:46;97059.88;;;10.47;50.86
47080;BME280;33067;49.296;14.470;2023-02-19T01:35:12;97060.89;;;10.89;50.15
47080;BME280;33067;49.296;14.470;2023-02-19T01:37:38;97060.31;;;10.38;50.49
47080;BME280;33067;49.296;14.470;2023-02-19T01:40:03;97062.44;;;10.85;49.98
47080;BME280;33067;49.296;14.470;2023-02-19T01:42:27;97057.74;;;10.93;49.03
47080;BME280;33067;49.296;14.470;2023-02-19T01:47:19;97051.01;;;11.07;48.47
47080;BME280;33067;49.296;14.470;2023-02-19T01:49:46;97048.51;;;10.84;48.36
47080;BME280;33067;49.296;14.470;2023-02-19T01:52:14;97049.13;;;10.36;49.02
47080;BME280;33067;49.296;14.470;2023-02-19T01:54:36;97043.92;;;10.98;47.65
47080;BME280;33067;49.296;14.470;2023-02-19T01:57:01;97038.21;;;10.93;47.92
47080;BME280;33067;49.296;14.470;2023-02-19T01:59:25;97041.30;;;10.11;49.40
47080;BME280;33067;49.296;14.470;2023-02-19T02:01:50;97035.25;;;9.94;49.84
47080;BME280;33067;49.296;14.470;2023-02-19T02:04:17;97030.11;;;10.48;48.92
47080;BME280;33067;49.296;14.470;2023-02-19T02:06:45;97023.00;;;10.21;48.94
47080;BME280;33067;49.296;14.470;2023-02-19T02:09:06;97025.59;;;9.99;49.85
47080;BME280;33067;49.296;14.470;2023-02-19T02:11:32;97022.45;;;10.23;49.15
47080;BME280;33067;49.296;14.470;2023-02-19T02:13:59;97018.60;;;10.62;48.39
47080;BME280;33067;49.296;14.470;2023-02-19T02:16:26;97018.89;;;10.37;48.79
47080;BME280;33067;49.296;14.470;2023-02-19T02:18:58;97010.03;;;10.23;48.33
47080;BME280;33067;49.296;14.470;2023-02-19T02:21:34;97002.83;;;10.81;47.94
47080;BME280;33067;49.296;14.470;2023-02-19T02:23:47;97002.05;;;10.91;47.68
47080;BME280;33067;49.296;14.470;2023-02-19T02:26:14;97014.25;;;10.55;47.15
47080;BME280;33067;49.296;14.470;2023-02-19T02:28:41;97009.80;;;10.83;47.75
47080;BME280;33067;49.296;14.470;2023-02-19T02:30:56;97007.43;;;10.88;47.54
47080;BME280;33067;49.296;14.470;2023-02-19T02:33:30;97004.38;;;11.21;46.64
47080;BME280;33067;49.296;14.470;2023-02-19T02:35:48;96998.53;;;10.59;47.40
47080;BME280;33067;49.296;14.470;2023-02-19T02:38:12;96994.88;;;10.57;47.18
47080;BME280;33067;49.296;14.470;2023-02-19T02:40:41;96988.97;;;10.43;47.58
47080;BME280;33067;49.296;14.470;2023-02-19T02:43:01;96990.35;;;10.59;47.51
47080;BME280;33067;49.296;14.470;2023-02-19T02:45:29;96991.07;;;10.80;46.99
47080;BME280;33067;49.296;14.470;2023-02-19T02:47:53;96978.71;;;10.39;47.58
47080;BME280;33067;49.296;14.470;2023-02-19T02:50:21;96969.81;;;10.23;47.15
47080;BME280;33067;49.296;14.470;2023-02-19T02:52:44;96963.49;;;10.31;47.45
47080;BME280;33067;49.296;14.470;2023-02-19T02:55:10;96954.84;;;10.74;46.19
47080;BME280;33067;49.296;14.470;2023-02-19T02:57:34;96954.24;;;10.87;45.87
47080;BME280;33067;49.296;14.470;2023-02-19T02:59:59;96943.84;;;11.22;45.01
47080;BME280;33067;49.296;14.470;2023-02-19T03:02:29;96934.11;;;11.09;45.51
47080;BME280;33067;49.296;14.470;2023-02-19T03:04:53;96935.58;;;10.67;46.11
47080;BME280;33067;49.296;14.470;2023-02-19T03:07:15;96933.69;;;11.08;45.74
47080;BME280;33067;49.296;14.470;2023-02-19T03:09:41;96932.94;;;10.75;45.55
47080;BME280;33067;49.296;14.470;2023-02-19T03:13:01;96925.61;;;11.44;44.22
47080;BME280;33067;49.296;14.470;2023-02-19T03:15:28;96922.85;;;11.08;44.62
47080;BME280;33067;49.296;14.470;2023-02-19T03:17:53;96921.02;;;11.28;44.34
47080;BME280;33067;49.296;14.470;2023-02-19T03:20:17;96920.80;;;10.97;45.04
47080;BME280;33067;49.296;14.470;2023-02-19T03:22:42;96919.48;;;11.21;44.39
47080;BME280;33067;49.296;14.470;2023-02-19T03:25:10;96912.78;;;11.44;44.22
47080;BME280;33067;49.296;14.470;2023-02-19T03:27:33;96913.74;;;11.09;44.74
47080;BME280;33067;49.296;14.470;2023-02-19T03:30:02;96902.42;;;11.13;44.58
47080;BME280;33067;49.296;14.470;2023-02-19T03:32:26;96900.45;;;11.25;44.53
47080;BME280;33067;49.296;14.470;2023-02-19T03:34:53;96905.51;;;11.29;44.21
47080;BME280;33067;49.296;14.470;2023-02-19T03:37:19;96906.23;;;11.47;43.85
47080;BME280;33067;49.296;14.470;2023-02-19T03:39:38;96901.61;;;11.41;44.12
47080;BME280;33067;49.296;14.470;2023-02-19T03:42:10;96902.74;;;11.33;44.09
47080;BME280;33067;49.296;14.470;2023-02-19T03:44:36;96903.47;;;11.73;43.28
47080;BME280;33067;49.296;14.470;2023-02-19T03:46:58;96896.71;;;11.73;43.31
47080;BME280;33067;49.296;14.470;2023-02-19T03:49:26;96889.10;;;11.45;43.73
47080;BME280;33067;49.296;14.470;2023-02-19T03:51:52;96881.19;;;11.73;43.34
47080;BME280;33067;49.296;14.470;2023-02-19T03:54:17;96887.36;;;11.56;43.58
47080;BME280;33067;49.296;14.470;2023-02-19T03:56:40;96888.04;;;11.62;43.50
47080;BME280;33067;49.296;14.470;2023-02-19T03:59:08;96892.19;;;11.69;43.46
47080;BME280;33067;49.296;14.470;2023-02-19T04:01:32;96893.45;;;11.78;43.15
47080;BME280;33067;49.296;14.470;2023-02-19T04:03:58;96883.36;;;11.27;43.68
47080;BME280;33067;49.296;14.470;2023-02-19T04:06:21;96882.56;;;11.63;43.00
47080;BME280;33067;49.296;14.470;2023-02-19T04:08:46;96883.85;;;11.68;43.35
47080;BME280;33067;49.296;14.470;2023-02-19T04:11:09;96879.07;;;11.84;43.13
47080;BME280;33067;49.296;14.470;2023-02-19T04:13:35;96873.14;;;11.86;43.10
47080;BME280;33067;49.296;14.470;2023-02-19T04:16:02;96869.45;;;12.19;42.50
47080;BME280;33067;49.296;14.470;2023-02-19T04:18:27;96866.90;;;11.91;42.96
47080;BME280;33067;49.296;14.470;2023-02-19T04:20:50;96865.20;;;12.18;42.51
47080;BME280;33067;49.296;14.470;2023-02-19T04:23:17;96858.77;;;12.14;42.52
47080;BME280;33067;49.296;14.470;2023-02-19T04:25:44;96855.32;;;12.32;42.14
47080;BME280;33067;49.296;14.470;2023-02-19T04:28:07;96852.77;;;12.32;42.19
47080;BME280;33067;49.296;14.470;2023-02-19T04:30:31;96850.83;;;12.54;41.83
47080;BME280;33067;49.296;14.470;2023-02-19T04:32:56;96841.05;;;12.47;41.89
47080;BME280;33067;49.296;14.470;2023-02-19T04:35:22;96846.56;;;12.15;41.91
47080;BME280;33067;49.296;14.470;2023-02-19T04:37:47;96848.36;;;12.35;41.70
47080;BME280;33067;49.296;14.470;2023-02-19T04:40:12;96849.99;;;12.35;41.73
47080;BME280;33067;49.296;14.470;2023-02-19T04:42:37;96849.90;;;12.07;42.15
47080;BME280;33067;49.296;14.470;2023-02-19T04:45:03;96845.42;;;12.07;41.91
47080;BME280;33067;49.296;14.470;2023-02-19T04:47:30;96843.21;;;11.82;42.46
47080;BME280;33067;49.296;14.470;2023-02-19T04:49:53;96839.19;;;11.80;42.49
47080;BME280;33067;49.296;14.470;2023-02-19T04:52:19;96830.77;;;11.83;42.52
47080;BME280;33067;49.296;14.470;2023-02-19T04:54:44;96829.70;;;11.78;42.96
47080;BME280;33067;49.296;14.470;2023-02-19T04:57:10;96831.15;;;11.47;43.32
47080;BME280;33067;49.296;14.470;2023-02-19T04:59:35;96833.39;;;11.74;42.82
47080;BME280;33067;49.296;14.470;2023-02-19T05:02:00;96827.48;;;10.93;44.20
47080;BME280;33067;49.296;14.470;2023-02-19T05:04:25;96834.11;;;10.87;44.62
47080;BME280;33067;49.296;14.470;2023-02-19T05:06:51;96831.23;;;10.67;45.14
47080;BME280;33067;49.296;14.470;2023-02-19T05:09:16;96831.39;;;10.69;45.18
47080;BME280;33067;49.296;14.470;2023-02-19T05:11:41;96837.53;;;10.85;45.30
47080;BME280;33067;49.296;14.470;2023-02-19T05:14:07;96834.52;;;11.46;44.73
47080;BME280;33067;49.296;14.470;2023-02-19T05:16:32;96823.57;;;10.84;45.31
47080;BME280;33067;49.296;14.470;2023-02-19T05:18:58;96822.74;;;10.83;45.08
47080;BME280;33067;49.296;14.470;2023-02-19T05:21:24;96825.36;;;10.83;45.09
47080;BME280;33067;49.296;14.470;2023-02-19T05:23:49;96831.75;;;11.17;45.44
47080;BME280;33067;49.296;14.470;2023-02-19T05:26:16;96831.74;;;11.17;45.36
47080;BME280;33067;49.296;14.470;2023-02-19T05:28:40;96831.07;;;10.82;45.29
47080;BME280;33067;49.296;14.470;2023-02-19T05:31:08;96834.38;;;9.51;48.41
47080;BME280;33067;49.296;14.470;2023-02-19T05:33:31;96834.50;;;10.49;46.35
47080;BME280;33067;49.296;14.470;2023-02-19T05:35:56;96836.50;;;10.53;46.85
47080;BME280;33067;49.296;14.470;2023-02-19T05:38:22;96835.62;;;9.83;48.01
47080;BME280;33067;49.296;14.470;2023-02-19T05:40:47;96839.31;;;9.73;48.60
47080;BME280;33067;49.296;14.470;2023-02-19T05:43:13;96839.04;;;10.50;47.62
47080;BME280;33067;49.296;14.470;2023-02-19T05:45:38;96840.91;;;9.54;49.34
47080;BME280;33067;49.296;14.470;2023-02-19T05:48:04;96847.90;;;8.99;50.41
47080;BME280;33067;49.296;14.470;2023-02-19T05:50:30;96852.83;;;9.14;50.64
47080;BME280;33067;49.296;14.470;2023-02-19T05:52:54;96850.07;;;9.10;50.90
47080;BME280;33067;49.296;14.470;2023-02-19T05:55:19;96849.64;;;9.47;49.33
47080;BME280;33067;49.296;14.470;2023-02-19T05:57:46;96857.53;;;8.89;50.25
47080;BME280;33067;49.296;14.470;2023-02-19T06:00:12;96855.14;;;9.78;49.25
47080;BME280;33067;49.296;14.470;2023-02-19T06:02:36;96853.24;;;9.38;49.54
47080;BME280;33067;49.296;14.470;2023-02-19T06:05:01;96854.80;;;10.21;48.39
47080;BME280;33067;49.296;14.470;2023-02-19T06:07:26;96860.11;;;9.81;49.22
47080;BME280;33067;49.296;14.470;2023-02-19T06:09:51;96857.21;;;9.72;49.65
47080;BME280;33067;49.296;14.470;2023-02-19T06:12:17;96854.43;;;9.68;49.75
47080;BME280;33067;49.296;14.470;2023-02-19T06:14:42;96858.23;;;9.63;49.47
47080;BME280;33067;49.296;14.470;2023-02-19T06:17:07;96862.04;;;9.26;50.47
47080;BME280;33067;49.296;14.470;2023-02-19T06:19:33;96855.40;;;9.65;50.13
47080;BME280;33067;49.296;14.470;2023-02-19T06:21:58;96858.25;;;10.19;48.62
47080;BME280;33067;49.296;14.470;2023-02-19T06:24:25;96864.04;;;10.41;48.18
47080;BME280;33067;49.296;14.470;2023-02-19T06:26:49;96864.78;;;10.37;48.15
47080;BME280;33067;49.296;14.470;2023-02-19T06:29:16;96866.22;;;9.90;49.07
47080;BME280;33067;49.296;14.470;2023-02-19T06:31:40;96869.64;;;10.34;48.49
47080;BME280;33067;49.296;14.470;2023-02-19T06:34:05;96867.81;;;10.33;48.19
47080;BME280;33067;49.296;14.470;2023-02-19T06:36:30;96864.73;;;9.86;49.30
47080;BME280;33067;49.296;14.470;2023-02-19T06:39:00;96865.52;;;10.69;48.39
47080;BME280;33067;49.296;14.470;2023-02-19T06:41:23;96871.68;;;10.08;48.86
47080;BME280;33067;49.296;14.470;2023-02-19T06:43:46;96883.52;;;10.05;49.05
47080;BME280;33067;49.296;14.470;2023-02-19T06:46:12;96884.54;;;10.17;48.67
47080;BME280;33067;49.296;14.470;2023-02-19T06:48:38;96889.51;;;10.27;48.36
47080;BME280;33067;49.296;14.470;2023-02-19T06:51:02;96885.07;;;9.96;48.87
47080;BME280;33067;49.296;14.470;2023-02-19T06:53:28;96892.06;;;9.99;48.93
47080;BME280;33067;49.296;14.470;2023-02-19T06:55:55;96897.58;;;10.17;48.43
47080;BME280;33067;49.296;14.470;2023-02-19T06:58:20;96903.99;;;10.13;49.00
47080;BME280;33067;49.296;14.470;2023-02-19T07:00:43;96898.13;;;9.39;49.55
47080;BME280;33067;49.296;14.470;2023-02-19T07:03:09;96903.94;;;8.85;51.03
47080;BME280;33067;49.296;14.470;2023-02-19T07:05:34;96906.73;;;9.89;49.06
47080;BME280;33067;49.296;14.470;2023-02-19T07:07:59;96911.37;;;10.29;48.33
47080;BME280;33067;49.296;14.470;2023-02-19T07:10:25;96905.13;;;9.64;49.43
47080;BME280;33067;49.296;14.470;2023-02-19T07:12:51;96917.13;;;9.37;51.13
47080;BME280;33067;49.296;14.470;2023-02-19T07:15:16;96912.17;;;8.36;53.25
47080;BME280;33067;49.296;14.470;2023-02-19T07:17:41;96913.59;;;9.65;51.14
47080;BME280;33067;49.296;14.470;2023-02-19T07:20:07;96911.47;;;9.83;50.97
47080;BME280;33067;49.296;14.470;2023-02-19T07:22:31;96907.35;;;9.86;51.02
47080;BME280;33067;49.296;14.470;2023-02-19T07:24:57;96912.26;;;8.75;53.12
47080;BME280;33067;49.296;14.470;2023-02-19T07:27:22;96910.28;;;9.44;51.21
47080;BME280;33067;49.296;14.470;2023-02-19T07:29:48;96915.47;;;10.05;49.96
47080;BME280;33067;49.296;14.470;2023-02-19T07:32:14;96927.49;;;8.65;52.36
47080;BME280;33067;49.296;14.470;2023-02-19T07:34:39;96938.70;;;9.22;51.79
47080;BME280;33067;49.296;14.470;2023-02-19T07:37:05;96939.71;;;9.23;51.44
47080;BME280;33067;49.296;14.470;2023-02-19T07:39:30;96935.41;;;9.82;50.37
47080;BME280;33067;49.296;14.470;2023-02-19T07:41:57;96934.41;;;9.82;50.43
47080;BME280;33067;49.296;14.470;2023-02-19T07:44:21;96941.64;;;9.63;50.57
47080;BME280;33067;49.296;14.470;2023-02-19T07:46:47;96942.46;;;10.48;49.00
47080;BME280;33067;49.296;14.470;2023-02-19T07:49:12;96955.27;;;10.52;48.40
47080;BME280;33067;49.296;14.470;2023-02-19T07:51:37;96958.39;;;9.48;50.69
47080;BME280;33067;49.296;14.470;2023-02-19T07:54:03;96961.60;;;10.23;49.37
47080;BME280;33067;49.296;14.470;2023-02-19T07:56:28;96961.55;;;10.40;49.03
47080;BME280;33067;49.296;14.470;2023-02-19T07:58:53;96946.54;;;10.47;48.72
47080;BME280;33067;49.296;14.470;2023-02-19T08:01:20;96942.99;;;10.68;48.16
47080;BME280;33067;49.296;14.470;2023-02-19T08:03:44;96939.65;;;10.28;48.46
47080;BME280;33067;49.296;14.470;2023-02-19T08:06:11;96937.43;;;8.93;50.91
47080;BME280;33067;49.296;14.470;2023-02-19T08:08:37;96948.49;;;9.67;50.13
47080;BME280;33067;49.296;14.470;2023-02-19T08:11:02;96933.63;;;9.78;49.09
47080;BME280;33067;49.296;14.470;2023-02-19T08:13:28;96946.99;;;9.94;48.95
47080;BME280;33067;49.296;14.470;2023-02-19T08:15:54;96947.77;;;10.07;49.53
47080;BME280;33067;49.296;14.470;2023-02-19T08:18:20;96939.51;;;9.92;49.38
47080;BME280;33067;49.296;14.470;2023-02-19T08:20:44;96946.98;;;9.67;49.71
47080;BME280;33067;49.296;14.470;2023-02-19T08:23:10;96949.82;;;9.86;49.35
47080;BME280;33067;49.296;14.470;2023-02-19T08:25:36;96944.12;;;10.45;48.55
47080;BME280;33067;49.296;14.470;2023-02-19T08:28:01;96951.30;;;9.93;48.99
47080;BME280;33067;49.296;14.470;2023-02-19T08:30:26;96941.62;;;9.82;48.46
47080;BME280;33067;49.296;14.470;2023-02-19T08:32:51;96953.71;;;9.84;49.36
47080;BME280;33067;49.296;14.470;2023-02-19T08:35:17;96955.57;;;10.26;48.46
47080;BME280;33067;49.296;14.470;2023-02-19T08:37:42;96962.04;;;9.79;48.55
47080;BME280;33067;49.296;14.470;2023-02-19T08:40:07;96963.19;;;9.71;48.39
47080;BME280;33067;49.296;14.470;2023-02-19T08:42:32;96970.07;;;9.54;49.53
47080;BME280;33067;49.296;14.470;2023-02-19T08:44:57;96964.23;;;9.71;48.82
47080;BME280;33067;49.296;14.470;2023-02-19T08:47:23;96973.93;;;9.88;48.44
47080;BME280;33067;49.296;14.470;2023-02-19T08:49:49;96976.16;;;10.01;47.78
47080;BME280;33067;49.296;14.470;2023-02-19T08:52:14;96973.32;;;10.27;47.49
47080;BME280;33067;49.296;14.470;2023-02-19T08:54:39;96978.79;;;9.69;48.61
47080;BME280;33067;49.296;14.470;2023-02-19T08:57:05;96981.88;;;10.64;47.05
47080;BME280;33067;49.296;14.470;2023-02-19T08:59:31;96980.43;;;9.73;48.19
47080;BME280;33067;49.296;14.470;2023-02-19T09:01:57;96985.73;;;10.10;47.83
47080;BME280;33067;49.296;14.470;2023-02-19T09:04:21;96980.46;;;9.64;48.73
47080;BME280;33067;49.296;14.470;2023-02-19T09:06:47;96977.86;;;8.96;49.53
47080;BME280;33067;49.296;14.470;2023-02-19T09:09:12;96975.13;;;8.35;51.00
47080;BME280;33067;49.296;14.470;2023-02-19T09:11:38;96974.99;;;9.17;49.33
47080;BME280;33067;49.296;14.470;2023-02-19T09:14:02;96988.84;;;9.27;49.97
47080;BME280;33067;49.296;14.470;2023-02-19T09:16:28;96968.71;;;9.58;48.83
47080;BME280;33067;49.296;14.470;2023-02-19T09:18:53;96982.80;;;10.12;48.10
47080;BME280;33067;49.296;14.470;2023-02-19T09:21:18;96977.05;;;10.36;47.44
47080;BME280;33067;49.296;14.470;2023-02-19T09:23:43;96976.59;;;10.07;47.16
47080;BME280;33067;49.296;14.470;2023-02-19T09:26:09;96980.07;;;9.89;47.48
47080;BME280;33067;49.296;14.470;2023-02-19T09:28:35;96976.53;;;10.35;46.85
47080;BME280;33067;49.296;14.470;2023-02-19T09:31:03;96978.19;;;9.28;48.71
47080;BME280;33067;49.296;14.470;2023-02-19T09:33:26;96988.86;;;9.32;50.03
47080;BME280;33067;49.296;14.470;2023-02-19T09:35:52;96989.11;;;9.49;49.84
47080;BME280;33067;49.296;14.470;2023-02-19T09:38:17;96977.09;;;9.97;48.92
47080;BME280;33067;49.296;14.470;2023-02-19T09:40:43;96988.17;;;9.10;50.38
47080;BME280;33067;49.296;14.470;2023-02-19T09:43:14;96983.01;;;9.22;49.94
47080;BME280;33067;49.296;14.470;2023-02-19T09:45:34;96988.05;;;9.74;49.78
47080;BME280;33067;49.296;14.470;2023-02-19T09:47:58;96980.49;;;9.14;50.68
47080;BME280;33067;49.296;14.470;2023-02-19T09:50:30;96980.06;;;9.43;50.21
47080;BME280;33067;49.296;14.470;2023-02-19T09:52:51;96978.31;;;10.60;48.21
47080;BME280;33067;49.296;14.470;2023-02-19T09:55:19;96983.88;;;10.00;48.36
47080;BME280;33067;49.296;14.470;2023-02-19T09:57:42;96986.81;;;9.61;49.28
47080;BME280;33067;49.296;14.470;2023-02-19T10:00:11;96991.72;;;9.72;49.45
47080;BME280;33067;49.296;14.470;2023-02-19T10:02:30;96982.53;;;10.22;48.53
47080;BME280;33067;49.296;14.470;2023-02-19T10:04:56;96992.38;;;9.01;50.41
47080;BME280;33067;49.296;14.470;2023-02-19T10:07:23;96989.21;;;9.70;49.22
47080;BME280;33067;49.296;14.470;2023-02-19T10:09:50;96990.56;;;10.51;47.86
47080;BME280;33067;49.296;14.470;2023-02-19T10:12:15;96998.53;;;9.11;50.02
47080;BME280;33067;49.296;14.470;2023-02-19T10:14:41;96994.74;;;9.34;49.56
47080;BME280;33067;49.296;14.470;2023-02-19T10:17:05;97002.29;;;9.63;49.66
47080;BME280;33067;49.296;14.470;2023-02-19T10:19:28;97005.36;;;10.08;48.74
47080;BME280;33067;49.296;14.470;2023-02-19T10:21:55;96997.17;;;8.94;49.82
47080;BME280;33067;49.296;14.470;2023-02-19T10:24:24;97004.92;;;8.66;50.82
47080;BME280;33067;49.296;14.470;2023-02-19T10:26:45;97004.55;;;8.29;51.37
47080;BME280;33067;49.296;14.470;2023-02-19T10:29:10;97007.49;;;9.13;50.25
47080;BME280;33067;49.296;14.470;2023-02-19T10:31:36;97011.29;;;9.27;49.31
47080;BME280;33067;49.296;14.470;2023-02-19T10:34:02;97018.62;;;9.74;48.86
47080;BME280;33067;49.296;14.470;2023-02-19T10:36:28;97022.22;;;9.56;49.39
47080;BME280;33067;49.296;14.470;2023-02-19T10:38:54;97024.03;;;9.80;48.78
47080;BME280;33067;49.296;14.470;2023-02-19T10:41:19;97030.52;;;9.37;50.95
47080;BME280;33067;49.296;14.470;2023-02-19T10:43:49;97041.33;;;9.15;52.08
47080;BME280;33067;49.296;14.470;2023-02-19T10:46:15;97034.63;;;8.48;53.62
47080;BME280;33067;49.296;14.470;2023-02-19T10:48:37;97051.85;;;9.22;51.66
47080;BME280;33067;49.296;14.470;2023-02-19T10:51:01;97053.20;;;8.62;53.00
47080;BME280;33067;49.296;14.470;2023-02-19T10:53:36;97083.80;;;9.31;53.35
47080;BME280;33067;49.296;14.470;2023-02-19T10:58:22;97090.52;;;8.42;55.70
47080;BME280;33067;49.296;14.470;2023-02-19T11:00:41;97089.91;;;9.46;53.82
47080;BME280;33067;49.296;14.470;2023-02-19T11:03:18;97084.76;;;9.24;55.56
47080;BME280;33067;49.296;14.470;2023-02-19T11:05:32;97083.70;;;9.44;54.35
47080;BME280;33067;49.296;14.470;2023-02-19T11:07:57;97101.72;;;9.69;53.41
47080;BME280;33067;49.296;14.470;2023-02-19T11:10:26;97096.30;;;8.26;55.90
47080;BME280;33067;49.296;14.470;2023-02-19T11:12:50;97095.78;;;8.22;55.44
47080;BME280;33067;49.296;14.470;2023-02-19T11:15:20;97094.51;;;7.88;55.55
47080;BME280;33067;49.296;14.470;2023-02-19T11:17:42;97092.73;;;7.94;55.82
47080;BME280;33067;49.296;14.470;2023-02-19T11:20:12;97097.77;;;8.87;53.87
47080;BME280;33067;49.296;14.470;2023-02-19T11:22:32;97102.32;;;9.08;53.52
47080;BME280;33067;49.296;14.470;2023-02-19T11:24:59;97109.68;;;8.90;54.48
47080;BME280;33067;49.296;14.470;2023-02-19T11:27:22;97102.21;;;9.64;52.45
47080;BME280;33067;49.296;14.470;2023-02-19T11:29:46;97095.92;;;9.78;53.14
47080;BME280;33067;49.296;14.470;2023-02-19T11:32:24;97093.28;;;9.66;52.49
47080;BME280;33067;49.296;14.470;2023-02-19T11:34:38;97092.08;;;9.53;52.22
47080;BME280;33067;49.296;14.470;2023-02-19T11:37:10;97090.75;;;10.36;51.37
47080;BME280;33067;49.296;14.470;2023-02-19T11:39:30;97090.04;;;10.32;50.91
47080;BME280;33067;49.296;14.470;2023-02-19T11:42:06;97090.12;;;10.06;51.87
47080;BME280;33067;49.296;14.470;2023-02-19T11:44:28;97093.20;;;9.01;54.01
47080;BME280;33067;49.296;14.470;2023-02-19T11:46:51;97110.56;;;8.91;53.96
47080;BME280;33067;49.296;14.470;2023-02-19T11:49:20;97107.90;;;9.07;54.14
47080;BME280;33067;49.296;14.470;2023-02-19T11:51:46;97096.82;;;9.37;53.89
47080;BME280;33067;49.296;14.470;2023-02-19T11:54:12;97100.11;;;9.25;54.90
47080;BME280;33067;49.296;14.470;2023-02-19T11:56:32;97088.33;;;8.57;55.97
47080;BME280;33067;49.296;14.470;2023-02-19T11:58:58;97095.18;;;8.38;57.14
47080;BME280;33067;49.296;14.470;2023-02-19T12:01:22;97100.43;;;8.05;57.56
47080;BME280;33067;49.296;14.470;2023-02-19T12:03:54;97089.17;;;8.89;55.85
47080;BME280;33067;49.296;14.470;2023-02-19T12:06:18;97092.39;;;9.33;54.85
47080;BME280;33067;49.296;14.470;2023-02-19T12:08:44;97099.33;;;8.50;56.02
47080;BME280;33067;49.296;14.470;2023-02-19T12:11:10;97094.83;;;9.52;54.36
47080;BME280;33067;49.296;14.470;2023-02-19T12:13:32;97097.22;;;9.50;53.26
47080;BME280;33067;49.296;14.470;2023-02-19T12:15:58;97090.45;;;9.15;54.18
47080;BME280;33067;49.296;14.470;2023-02-19T12:18:37;97095.14;;;9.65;53.30
47080;BME280;33067;49.296;14.470;2023-02-19T12:20:48;97089.55;;;10.06;52.65
47080;BME280;33067;49.296;14.470;2023-02-19T12:25:43;97087.42;;;9.31;53.65
47080;BME280;33067;49.296;14.470;2023-02-19T12:28:12;97090.09;;;9.65;52.74
47080;BME280;33067;49.296;14.470;2023-02-19T12:30:36;97087.81;;;9.86;52.26
47080;BME280;33067;49.296;14.470;2023-02-19T12:33:07;97087.86;;;9.93;51.69
47080;BME280;33067;49.296;14.470;2023-02-19T12:35:26;97090.01;;;10.43;50.41
47080;BME280;33067;49.296;14.470;2023-02-19T12:37:46;97085.35;;;9.15;52.60
47080;BME280;33067;49.296;14.470;2023-02-19T12:40:18;97083.02;;;9.17;51.90
47080;BME280;33067;49.296;14.470;2023-02-19T12:42:50;97079.66;;;9.76;51.93
47080;BME280;33067;49.296;14.470;2023-02-19T12:45:00;97078.75;;;9.72;51.57
47080;BME280;33067;49.296;14.470;2023-02-19T12:47:25;97071.85;;;9.37;52.42
47080;BME280;33067;49.296;14.470;2023-02-19T12:49:49;97071.55;;;8.75;53.78
47080;BME280;33067;49.296;14.470;2023-02-19T12:52:17;97072.88;;;10.25;50.80